Map

Track Data

SID SEASON NUMBER BASIN SUBBASIN NAME ISO_TIME NATURE LAT LON WMO_WIND WMO_PRES WMO_AGENCY TRACK_TYPE DIST2LAND LANDFALL IFLAG USA_AGENCY USA_ATCF_ID USA_LAT USA_LON USA_RECORD USA_STATUS USA_WIND USA_PRES USA_SSHS USA_R34_NE USA_R34_SE USA_R34_SW USA_R34_NW USA_R50_NE USA_R50_SE USA_R50_SW USA_R50_NW USA_R64_NE USA_R64_SE USA_R64_SW USA_R64_NW USA_POCI USA_ROCI USA_RMW USA_EYE TOKYO_LAT TOKYO_LON TOKYO_GRADE TOKYO_WIND TOKYO_PRES TOKYO_R50_DIR TOKYO_R50_LONG TOKYO_R50_SHORT TOKYO_R30_DIR TOKYO_R30_LONG TOKYO_R30_SHORT TOKYO_LAND CMA_LAT CMA_LON CMA_CAT CMA_WIND CMA_PRES HKO_LAT HKO_LON HKO_CAT HKO_WIND HKO_PRES NEWDELHI_LAT NEWDELHI_LON NEWDELHI_GRADE NEWDELHI_WIND NEWDELHI_PRES NEWDELHI_CI NEWDELHI_DP NEWDELHI_POCI REUNION_LAT REUNION_LON REUNION_TYPE REUNION_WIND REUNION_PRES REUNION_TNUM REUNION_CI REUNION_RMW REUNION_R34_NE REUNION_R34_SE REUNION_R34_SW REUNION_R34_NW REUNION_R50_NE REUNION_R50_SE REUNION_R50_SW REUNION_R50_NW REUNION_R64_NE REUNION_R64_SE REUNION_R64_SW REUNION_R64_NW BOM_LAT BOM_LON BOM_TYPE BOM_WIND BOM_PRES BOM_TNUM BOM_CI BOM_RMW BOM_R34_NE BOM_R34_SE BOM_R34_SW BOM_R34_NW BOM_R50_NE BOM_R50_SE BOM_R50_SW BOM_R50_NW BOM_R64_NE BOM_R64_SE BOM_R64_SW BOM_R64_NW BOM_ROCI BOM_POCI BOM_EYE BOM_POS_METHOD BOM_PRES_METHOD NADI_LAT NADI_LON NADI_CAT NADI_WIND NADI_PRES WELLINGTON_LAT WELLINGTON_LON WELLINGTON_WIND WELLINGTON_PRES DS824_LAT DS824_LON DS824_STAGE DS824_WIND DS824_PRES TD9636_LAT TD9636_LON TD9636_STAGE TD9636_WIND TD9636_PRES TD9635_LAT TD9635_LON TD9635_WIND TD9635_PRES TD9635_ROCI NEUMANN_LAT NEUMANN_LON NEUMANN_CLASS NEUMANN_WIND NEUMANN_PRES MLC_LAT MLC_LON MLC_CLASS MLC_WIND MLC_PRES USA_GUST BOM_GUST BOM_GUST_PER REUNION_GUST REUNION_GUST_PER USA_SEAHGT USA_SEARAD_NE USA_SEARAD_SE USA_SEARAD_SW USA_SEARAD_NW STORM_SPEED STORM_DIR
1912294N13148 1912 56 WP MM NOT_NAMED 1912-10-20 09:00:00 NR 13.5000 148.400 main 1751 1748 __________O___ -1 13.5000 148.400 2 12 275
1912294N13148 1912 56 WP MM NOT_NAMED 1912-10-20 12:00:00 NR 13.5575 147.782 main 1759 1758 __________P___ -1 13.5575 147.782 2 12 275
1912294N13148 1912 56 WP MM NOT_NAMED 1912-10-20 15:00:00 NR 13.6114 147.170 main 1758 1758 __________P___ -1 13.6114 147.170 2 12 275
1912294N13148 1912 56 WP MM NOT_NAMED 1912-10-20 18:00:00 NR 13.6596 146.574 main 1770 1770 __________P___ -1 13.6596 146.574 2 11 274
1912294N13148 1912 56 WP MM NOT_NAMED 1912-10-20 21:00:00 NR 13.7000 146.000 main 1771 1771 __________O___ -1 13.7000 146.000 2 11 274
1912294N13148 1912 56 WP MM NOT_NAMED 1912-10-21 00:00:00 NR 13.7316 145.453 main 1774 1774 __________P___ -1 13.7316 145.453 2 10 273
1912294N13148 1912 56 WP MM NOT_NAMED 1912-10-21 03:00:00 NR 13.7568 144.927 main 1791 1791 __________P___ -1 13.7568 144.927 2 10 273
1912294N13148 1912 56 WP MM NOT_NAMED 1912-10-21 06:00:00 NR 13.7785 144.413 main 1797 1797 __________P___ -1 13.7785 144.413 2 10 272
1912294N13148 1912 56 WP MM NOT_NAMED 1912-10-21 09:00:00 NR 13.8000 143.900 main 1806 1806 __________O___ -1 13.8000 143.900 2 10 273
1912294N13148 1912 56 WP MM NOT_NAMED 1912-10-21 12:00:00 NR 13.8248 143.367 main 1816 1801 __________P___ -1 13.8248 143.367 2 10 273
1912294N13148 1912 56 WP MM NOT_NAMED 1912-10-21 15:00:00 NR 13.8497 142.835 main 1798 1791 __________P___ -1 13.8497 142.835 2 10 273
1912294N13148 1912 56 WP MM NOT_NAMED 1912-10-21 18:00:00 NR 13.8748 142.311 main 1791 1768 __________P___ -1 13.8748 142.311 2 10 273
1912294N13148 1912 56 WP MM NOT_NAMED 1912-10-21 21:00:00 NR 13.9000 141.800 main 1768 1714 __________O___ -1 13.9000 141.800 2 10 273
1912294N13148 1912 56 WP MM NOT_NAMED 1912-10-22 00:00:00 NR 13.9247 141.303 main 1714 1661 __________P___ -1 13.9247 141.303 2 10 273
1912294N13148 1912 56 WP MM NOT_NAMED 1912-10-22 03:00:00 NR 13.9496 140.820 main 1661 1620 __________P___ -1 13.9496 140.820 2 9 273
1912294N13148 1912 56 WP MM NOT_NAMED 1912-10-22 06:00:00 NR 13.9747 140.352 main 1620 1567 __________P___ -1 13.9747 140.352 2 9 273
1912294N13148 1912 56 WP MM NOT_NAMED 1912-10-22 09:00:00 NR 14.0000 139.900 main 1567 1525 __________O___ -1 14.0000 139.900 2 9 273
1912294N13148 1912 56 WP MM NOT_NAMED 1912-10-22 12:00:00 NR 14.0246 139.465 main 1525 1482 __________P___ -1 14.0246 139.465 2 8 273
1912294N13148 1912 56 WP MM NOT_NAMED 1912-10-22 15:00:00 NR 14.0495 139.042 main 1472 1432 __________P___ -1 14.0495 139.042 2 8 274
1912294N13148 1912 56 WP MM NOT_NAMED 1912-10-22 18:00:00 NR 14.0746 138.624 main 1432 1390 __________P___ -1 14.0746 138.624 2 8 274
1912294N13148 1912 56 WP MM NOT_NAMED 1912-10-22 21:00:00 NR 14.1000 138.200 main 1390 1348 __________O___ -1 14.1000 138.200 2 9 273
1912294N13148 1912 56 WP MM NOT_NAMED 1912-10-23 00:00:00 NR 14.1250 137.745 main 1337 1295 __________P___ -1 14.1250 137.745 2 9 273
1912294N13148 1912 56 WP MM NOT_NAMED 1912-10-23 03:00:00 NR 14.1500 137.285 main 1295 1254 __________P___ -1 14.1500 137.285 2 9 273
1912294N13148 1912 56 WP MM NOT_NAMED 1912-10-23 06:00:00 NR 14.1750 136.832 main 1244 1201 __________P___ -1 14.1750 136.832 2 9 273
1912294N13148 1912 56 WP MM NOT_NAMED 1912-10-23 09:00:00 NR 14.2000 136.400 main 1201 1159 __________O___ -1 14.2000 136.400 2 8 274
1912294N13148 1912 56 WP MM NOT_NAMED 1912-10-23 12:00:00 NR 14.2246 136.007 main 1159 1127 __________P___ -1 14.2246 136.007 2 7 274
1912294N13148 1912 56 WP MM NOT_NAMED 1912-10-23 15:00:00 NR 14.2495 135.635 main 1116 1086 __________P___ -1 14.2495 135.635 2 7 274
1912294N13148 1912 56 WP MM NOT_NAMED 1912-10-23 18:00:00 NR 14.2746 135.270 main 1086 1044 __________P___ -1 14.2746 135.270 2 7 274
1912294N13148 1912 56 WP MM NOT_NAMED 1912-10-23 21:00:00 NR 14.3000 134.900 main 1044 1002 __________O___ -1 14.3000 134.900 2 7 274
1912294N13148 1912 56 WP MM NOT_NAMED 1912-10-24 00:00:00 NR 14.3249 134.503 main 1002 960 __________P___ -1 14.3249 134.503 2 8 274
1912294N13148 1912 56 WP MM NOT_NAMED 1912-10-24 03:00:00 NR 14.3499 134.100 main 960 921 __________P___ -1 14.3499 134.100 2 8 274
1912294N13148 1912 56 WP MM NOT_NAMED 1912-10-24 06:00:00 NR 14.3749 133.697 main 921 879 __________P___ -1 14.3749 133.697 2 8 274
1912294N13148 1912 56 WP MM NOT_NAMED 1912-10-24 09:00:00 NR 14.4000 133.300 main 879 838 __________O___ -1 14.4000 133.300 2 8 274
1912294N13148 1912 56 WP MM NOT_NAMED 1912-10-24 12:00:00 NR 14.4247 132.922 main 838 807 __________P___ -1 14.4247 132.922 2 7 274
1912294N13148 1912 56 WP MM NOT_NAMED 1912-10-24 15:00:00 NR 14.4496 132.550 main 796 769 __________P___ -1 14.4496 132.550 2 7 274
1912294N13148 1912 56 WP MM NOT_NAMED 1912-10-24 18:00:00 NR 14.4747 132.178 main 769 728 __________P___ -1 14.4747 132.178 2 7 274
1912294N13148 1912 56 WP MM NOT_NAMED 1912-10-24 21:00:00 NR 14.5000 131.800 main 728 688 __________O___ -1 14.5000 131.800 2 7 274
1912294N13148 1912 56 WP MM NOT_NAMED 1912-10-25 00:00:00 NR 14.5206 131.423 main 688 658 __________P___ -1 14.5206 131.423 2 7 273
1912294N13148 1912 56 WP MM NOT_NAMED 1912-10-25 03:00:00 NR 14.5420 131.037 main 648 623 __________P___ -1 14.5420 131.037 2 8 274
1912294N13148 1912 56 WP MM NOT_NAMED 1912-10-25 06:00:00 NR 14.5674 130.633 main 613 575 __________P___ -1 14.5674 130.633 2 8 274
1912294N13148 1912 56 WP MM NOT_NAMED 1912-10-25 09:00:00 NR 14.6000 130.200 main 575 537 __________O___ -1 14.6000 130.200 2 9 274
1912294N13148 1912 56 WP MM NOT_NAMED 1912-10-25 12:00:00 NR 14.6346 129.733 main 528 497 __________P___ -1 14.6346 129.733 2 9 275
1912294N13148 1912 56 WP MM NOT_NAMED 1912-10-25 15:00:00 NR 14.6773 129.237 main 488 453 __________P___ -1 14.6773 129.237 2 10 276
1912294N13148 1912 56 WP MM NOT_NAMED 1912-10-25 18:00:00 NR 14.7314 128.723 main 445 412 __________P___ -1 14.7314 128.723 2 10 277
1912294N13148 1912 56 WP MM NOT_NAMED 1912-10-25 21:00:00 NR 14.8000 128.200 main 412 369 __________O___ -1 14.8000 128.200 2 10 276
1912294N13148 1912 56 WP MM NOT_NAMED 1912-10-26 00:00:00 NR 14.8447 127.681 main 369 321 __________P___ -1 14.8447 127.681 2 10 276
1912294N13148 1912 56 WP MM NOT_NAMED 1912-10-26 03:00:00 NR 14.9096 127.156 main 321 276 __________P___ -1 14.9096 127.156 2 10 280
1912294N13148 1912 56 WP MM NOT_NAMED 1912-10-26 06:00:00 NR 15.0197 126.628 main 267 233 __________P___ -1 15.0197 126.628 2 11 286
1912294N13148 1912 56 WP MM NOT_NAMED 1912-10-26 09:00:00 NR 15.2000 126.100 main 233 210 __________O___ -1 15.2000 126.100 2 12 295
1912294N13148 1912 56 WP MM NOT_NAMED 1912-10-26 12:00:00 NR 15.5151 125.516 main 211 208 __________P___ -1 15.5151 125.516 2 13 302
1912294N13148 1912 56 WP MM NOT_NAMED 1912-10-26 15:00:00 NR 15.8932 124.940 main 222 213 __________P___ -1 15.8932 124.940 2 13 306
1912294N13148 1912 56 WP MM NOT_NAMED 1912-10-26 18:00:00 NR 16.2746 124.419 main 213 163 __________P___ -1 16.2746 124.419 2 11 308
1912294N13148 1912 56 WP MM NOT_NAMED 1912-10-26 21:00:00 NR 16.6000 124.000 main 163 128 __________O___ -1 16.6000 124.000 2 8 308
1912294N13148 1912 56 WP MM NOT_NAMED 1912-10-27 00:00:00 NR 16.7767 123.737 main 128 117 __________P___ -1 16.7767 123.737 2 5 306
1912294N13148 1912 56 WP MM NOT_NAMED 1912-10-27 03:00:00 NR 16.8940 123.579 main 117 106 __________P___ -1 16.8940 123.579 2 3 311
1912294N13148 1912 56 WP MM NOT_NAMED 1912-10-27 06:00:00 NR 16.9894 123.481 main 106 95 __________P___ -1 16.9894 123.481 2 3 320
1912294N13148 1912 56 WP MM NOT_NAMED 1912-10-27 09:00:00 NR 17.1000 123.400 main 96 87 __________O___ -1 17.1000 123.400 2 3 324
1912294N13148 1912 56 WP MM NOT_NAMED 1912-10-27 12:00:00 NR 17.2621 123.276 main 91 81 __________P___ -1 17.2621 123.276 2 4 326
1912294N13148 1912 56 WP MM NOT_NAMED 1912-10-27 15:00:00 NR 17.4474 123.157 main 85 71 __________P___ -1 17.4474 123.157 2 5 330
1912294N13148 1912 56 WP MM NOT_NAMED 1912-10-27 18:00:00 NR 17.6590 123.035 main 77 77 __________P___ -1 17.6590 123.035 2 5 332
1912294N13148 1912 56 WP MM NOT_NAMED 1912-10-27 21:00:00 NR 17.9000 122.900 main 77 47 __________O___ -1 17.9000 122.900 2 6 329
1912294N13148 1912 56 WP MM NOT_NAMED 1912-10-28 00:00:00 NR 18.1592 122.715 main 43 21 __________P___ -1 18.1592 122.715 2 7 327
1912294N13148 1912 56 WP MM NOT_NAMED 1912-10-28 03:00:00 NR 18.4477 122.520 main 21 21 __________P___ -1 18.4477 122.520 2 7 330
1912294N13148 1912 56 WP MM NOT_NAMED 1912-10-28 06:00:00 NR 18.7623 122.340 main 44 44 __________P___ -1 18.7623 122.340 2 7 335
1912294N13148 1912 56 WP MM NOT_NAMED 1912-10-28 09:00:00 NR 19.1000 122.200 main 78 78 __________O___ -1 19.1000 122.200 2 7 343
1912294N13148 1912 56 WP MM NOT_NAMED 1912-10-28 12:00:00 NR 19.4655 122.115 main 123 123 __________P___ -1 19.4655 122.115 2 8 351
1912294N13148 1912 56 WP MM NOT_NAMED 1912-10-28 15:00:00 NR 19.8499 122.075 main 156 156 __________P___ -1 19.8499 122.075 2 8 356
1912294N13148 1912 56 WP MM NOT_NAMED 1912-10-28 18:00:00 NR 20.2343 122.072 main 201 191 __________P___ -1 20.2343 122.072 2 8 0
1912294N13148 1912 56 WP MM NOT_NAMED 1912-10-28 21:00:00 NR 20.6000 122.100 main 191 167 __________O___ -1 20.6000 122.100 2 7 4
1912294N13148 1912 56 WP MM NOT_NAMED 1912-10-29 00:00:00 NR 20.9256 122.134 main 167 155 __________P___ -1 20.9256 122.134 2 6 8
1912294N13148 1912 56 WP MM NOT_NAMED 1912-10-29 03:00:00 NR 21.2299 122.198 main 155 145 __________P___ -1 21.2299 122.198 2 6 13
1912294N13148 1912 56 WP MM NOT_NAMED 1912-10-29 06:00:00 NR 21.5193 122.287 main 151 146 __________P___ -1 21.5193 122.287 2 6 19
1912294N13148 1912 56 WP MM NOT_NAMED 1912-10-29 09:00:00 NR 21.8000 122.400 main 155 154 __________O___ -1 21.8000 122.400 2 6 19
1912294N13148 1912 56 WP MM NOT_NAMED 1912-10-29 12:00:00 NR 22.0820 122.500 main 158 151 __________P___ -1 22.0820 122.500 2 6 21
1912294N13148 1912 56 WP MM NOT_NAMED 1912-10-29 15:00:00 NR 22.3571 122.626 main 145 144 __________P___ -1 22.3571 122.626 2 6 26
1912294N13148 1912 56 WP MM NOT_NAMED 1912-10-29 18:00:00 NR 22.6287 122.788 main 153 150 __________P___ -1 22.6287 122.788 2 6 32
1912294N13148 1912 56 WP MM NOT_NAMED 1912-10-29 21:00:00 NR 22.9000 123.000 main 165 165 __________O___ -1 22.9000 123.000 2 7 41
1912294N13148 1912 56 WP MM NOT_NAMED 1912-10-30 00:00:00 NR 23.1673 123.291 main 191 191 __________P___ -1 23.1673 123.291 2 8 47
1912294N13148 1912 56 WP MM NOT_NAMED 1912-10-30 03:00:00 NR 23.4356 123.627 main 211 205 __________P___ -1 23.4356 123.627 2 8 49
1912294N13148 1912 56 WP MM NOT_NAMED 1912-10-30 06:00:00 NR 23.7110 123.975 main 231 226 __________P___ -1 23.7110 123.975 2 8 47
1912294N13148 1912 56 WP MM NOT_NAMED 1912-10-30 09:00:00 NR 24.0000 124.300 main 249 249 __________O___ -1 24.0000 124.300 2 8 41
1912294N13148 1912 56 WP MM NOT_NAMED 1912-10-30 12:00:00 NR 24.3060 124.538 main 264 264 __________P___ -1 24.3060 124.538 2 8 33
1912294N13148 1912 56 WP MM NOT_NAMED 1912-10-30 15:00:00 NR 24.6268 124.751 main 285 283 __________P___ -1 24.6268 124.751 2 8 31
1912294N13148 1912 56 WP MM NOT_NAMED 1912-10-30 18:00:00 NR 24.9592 124.964 main 302 302 __________P___ -1 24.9592 124.964 2 8 31
1912294N13148 1912 56 WP MM NOT_NAMED 1912-10-30 21:00:00 NR 25.3000 125.200 main 323 323 __________O___ -1 25.3000 125.200 2 8 35
1912294N13148 1912 56 WP MM NOT_NAMED 1912-10-31 00:00:00 NR 25.6306 125.493 main 357 357 __________P___ -1 25.6306 125.493 2 9 40
1912294N13148 1912 56 WP MM NOT_NAMED 1912-10-31 03:00:00 NR 25.9700 125.813 main 397 397 __________P___ -1 25.9700 125.813 2 9 41
1912294N13148 1912 56 WP MM NOT_NAMED 1912-10-31 06:00:00 NR 26.3243 126.152 main 445 445 __________P___ -1 26.3243 126.152 2 10 40
1912294N13148 1912 56 WP MM NOT_NAMED 1912-10-31 09:00:00 NR 26.7000 126.500 main 488 488 __________O___ -1 26.7000 126.500 2 10 38
1912294N13148 1912 56 WP MM NOT_NAMED 1912-10-31 12:00:00 NR 27.1032 126.839 main 525 504 __________P___ -1 27.1032 126.839 2 10 36
1912294N13148 1912 56 WP MM NOT_NAMED 1912-10-31 15:00:00 NR 27.5272 127.186 main 504 451 __________P___ -1 27.5272 127.186 2 11 36
1912294N13148 1912 56 WP MM NOT_NAMED 1912-10-31 18:00:00 NR 27.9625 127.539 main 442 383 __________P___ -1 27.9625 127.539 2 11 36
1912294N13148 1912 56 WP MM NOT_NAMED 1912-10-31 21:00:00 NR 28.4000 127.900 main 383 329 __________O___ -1 28.4000 127.900 2 11 36
1912294N13148 1912 56 WP MM NOT_NAMED 1912-11-01 00:00:00 NR 28.8205 128.257 main 324 270 __________P___ -1 28.8205 128.257 2 11 37
1912294N13148 1912 56 WP MM NOT_NAMED 1912-11-01 03:00:00 NR 29.2418 128.622 main 270 212 __________P___ -1 29.2418 128.622 2 11 37
1912294N13148 1912 56 WP MM NOT_NAMED 1912-11-01 06:00:00 NR 29.6673 129.001 main 202 144 __________P___ -1 29.6673 129.001 2 11 38
1912294N13148 1912 56 WP MM NOT_NAMED 1912-11-01 09:00:00 NR 30.1000 129.400 main 144 86 __________O___ -1 30.1000 129.400 2 11 39
1912294N13148 1912 56 WP MM NOT_NAMED 1912-11-01 12:00:00 NR 30.5550 129.833 main 77 22 __________P___ -1 30.5550 129.833 2 12 40
1912294N13148 1912 56 WP MM NOT_NAMED 1912-11-01 15:00:00 NR 31.0150 130.285 main 24 0 __________P___ -1 31.0150 130.285 2 12 41
1912294N13148 1912 56 WP MM NOT_NAMED 1912-11-01 18:00:00 NR 31.4674 130.745 main 9 0 __________P___ -1 31.4674 130.745 2 12 41
1912294N13148 1912 56 WP MM NOT_NAMED 1912-11-01 21:00:00 NR 31.9000 131.200 main 0 0 __________O___ -1 31.9000 131.200 2 11 42
1912294N13148 1912 56 WP MM NOT_NAMED 1912-11-02 00:00:00 NR 32.3163 131.633 main 9 0 __________P___ -1 32.3163 131.633 2 11 42
1912294N13148 1912 56 WP MM NOT_NAMED 1912-11-02 03:00:00 NR 32.7092 132.059 main 18 0 __________P___ -1 32.7092 132.059 2 10 43
1912294N13148 1912 56 WP MM NOT_NAMED 1912-11-02 06:00:00 NR 33.0726 132.480 main 0 0 __________P___ -1 33.0726 132.480 2 10 46
1912294N13148 1912 56 WP MM NOT_NAMED 1912-11-02 09:00:00 NR 33.4000 132.900 main 0 0 __________O___ -1 33.4000 132.900 2 9 49
1912294N13148 1912 56 WP MM NOT_NAMED 1912-11-02 12:00:00 NR 33.6879 133.322 main 0 0 __________P___ -1 33.6879 133.322 2 9 52
1912294N13148 1912 56 WP MM NOT_NAMED 1912-11-02 15:00:00 NR 33.9438 133.746 main 0 0 __________P___ -1 33.9438 133.746 2 9 55
1912294N13148 1912 56 WP MM NOT_NAMED 1912-11-02 18:00:00 NR 34.1777 134.172 main 0 0 __________P___ -1 34.1777 134.172 2 8 57
1912294N13148 1912 56 WP MM NOT_NAMED 1912-11-02 21:00:00 NR 34.4000 134.600 main 28 __________O___ -1 34.4000 134.600 2 8 58

Digital Typhoon Data and Search

About IBTrACS Database

This database is a web-friendly format of International Best Track Archive for Climate Stewardship (IBTrACS), a global best track data archive curated by NOAA dating back to 1842.

Updated: 2021-10-27